sensor_id;sensor_type;location;lat;lon;timestamp;P1;durP1;ratioP1;P2;durP2;ratioP2
72406;SDS011;60396;47.550;18.828;2023-02-04T00:00:18;6.97;;;1.17;;
72406;SDS011;60396;47.550;18.828;2023-02-04T00:02:47;9.43;;;1.10;;
72406;SDS011;60396;47.550;18.828;2023-02-04T00:05:16;6.20;;;1.08;;
72406;SDS011;60396;47.550;18.828;2023-02-04T00:07:44;10.27;;;1.20;;
72406;SDS011;60396;47.550;18.828;2023-02-04T00:10:12;11.77;;;1.50;;
72406;SDS011;60396;47.550;18.828;2023-02-04T00:12:40;9.52;;;1.37;;
72406;SDS011;60396;47.550;18.828;2023-02-04T00:15:08;17.98;;;1.42;;
72406;SDS011;60396;47.550;18.828;2023-02-04T00:17:37;6.57;;;1.00;;
72406;SDS011;60396;47.550;18.828;2023-02-04T00:20:05;7.43;;;1.20;;
72406;SDS011;60396;47.550;18.828;2023-02-04T00:22:33;14.45;;;1.80;;
72406;SDS011;60396;47.550;18.828;2023-02-04T00:25:01;8.15;;;1.58;;
72406;SDS011;60396;47.550;18.828;2023-02-04T00:27:29;9.52;;;1.25;;
72406;SDS011;60396;47.550;18.828;2023-02-04T00:29:56;8.93;;;1.55;;
72406;SDS011;60396;47.550;18.828;2023-02-04T00:32:24;4.80;;;0.83;;
72406;SDS011;60396;47.550;18.828;2023-02-04T00:34:53;6.50;;;1.10;;
72406;SDS011;60396;47.550;18.828;2023-02-04T00:37:21;13.18;;;1.87;;
72406;SDS011;60396;47.550;18.828;2023-02-04T00:39:49;8.50;;;1.00;;
72406;SDS011;60396;47.550;18.828;2023-02-04T00:42:16;10.45;;;1.30;;
72406;SDS011;60396;47.550;18.828;2023-02-04T00:44:44;10.27;;;1.30;;
72406;SDS011;60396;47.550;18.828;2023-02-04T00:47:12;7.65;;;1.08;;
72406;SDS011;60396;47.550;18.828;2023-02-04T00:49:40;6.72;;;2.12;;
72406;SDS011;60396;47.550;18.828;2023-02-04T00:52:07;5.80;;;1.17;;
72406;SDS011;60396;47.550;18.828;2023-02-04T00:54:35;11.88;;;1.23;;
72406;SDS011;60396;47.550;18.828;2023-02-04T00:57:03;10.43;;;1.63;;
72406;SDS011;60396;47.550;18.828;2023-02-04T00:59:31;8.85;;;2.20;;
72406;SDS011;60396;47.550;18.828;2023-02-04T01:01:59;11.65;;;1.40;;
72406;SDS011;60396;47.550;18.828;2023-02-04T01:04:26;9.93;;;1.40;;
72406;SDS011;60396;47.550;18.828;2023-02-04T01:06:55;9.45;;;1.10;;
72406;SDS011;60396;47.550;18.828;2023-02-04T01:09:23;8.40;;;1.13;;
72406;SDS011;60396;47.550;18.828;2023-02-04T01:11:51;6.97;;;1.10;;
72406;SDS011;60396;47.550;18.828;2023-02-04T01:14:19;11.05;;;1.50;;
72406;SDS011;60396;47.550;18.828;2023-02-04T01:16:47;7.53;;;0.93;;
72406;SDS011;60396;47.550;18.828;2023-02-04T01:19:15;6.75;;;1.02;;
72406;SDS011;60396;47.550;18.828;2023-02-04T01:21:43;10.23;;;1.20;;
72406;SDS011;60396;47.550;18.828;2023-02-04T01:24:11;7.18;;;1.12;;
72406;SDS011;60396;47.550;18.828;2023-02-04T01:26:53;7.40;;;1.17;;
72406;SDS011;60396;47.550;18.828;2023-02-04T01:29:21;7.78;;;1.25;;
72406;SDS011;60396;47.550;18.828;2023-02-04T01:31:50;5.95;;;1.20;;
72406;SDS011;60396;47.550;18.828;2023-02-04T01:34:17;7.60;;;1.40;;
72406;SDS011;60396;47.550;18.828;2023-02-04T01:36:45;12.23;;;0.95;;
72406;SDS011;60396;47.550;18.828;2023-02-04T01:39:13;5.65;;;0.75;;
72406;SDS011;60396;47.550;18.828;2023-02-04T01:41:41;6.50;;;1.15;;
72406;SDS011;60396;47.550;18.828;2023-02-04T01:44:09;12.18;;;1.17;;
72406;SDS011;60396;47.550;18.828;2023-02-04T01:46:36;4.87;;;0.83;;
72406;SDS011;60396;47.550;18.828;2023-02-04T01:49:04;6.90;;;0.82;;
72406;SDS011;60396;47.550;18.828;2023-02-04T01:51:33;8.98;;;1.33;;
72406;SDS011;60396;47.550;18.828;2023-02-04T01:54:02;7.03;;;0.90;;
72406;SDS011;60396;47.550;18.828;2023-02-04T01:56:30;7.32;;;0.90;;
72406;SDS011;60396;47.550;18.828;2023-02-04T01:58:58;7.93;;;0.93;;
72406;SDS011;60396;47.550;18.828;2023-02-04T02:01:33;4.68;;;0.90;;
72406;SDS011;60396;47.550;18.828;2023-02-04T02:04:01;6.75;;;0.95;;
72406;SDS011;60396;47.550;18.828;2023-02-04T02:06:29;7.75;;;0.80;;
72406;SDS011;60396;47.550;18.828;2023-02-04T02:08:57;7.50;;;1.10;;
72406;SDS011;60396;47.550;18.828;2023-02-04T02:11:25;4.93;;;0.80;;
72406;SDS011;60396;47.550;18.828;2023-02-04T02:13:53;8.63;;;1.45;;
72406;SDS011;60396;47.550;18.828;2023-02-04T02:16:21;6.45;;;0.82;;
72406;SDS011;60396;47.550;18.828;2023-02-04T02:18:49;8.52;;;1.17;;
72406;SDS011;60396;47.550;18.828;2023-02-04T02:21:28;7.53;;;1.27;;
72406;SDS011;60396;47.550;18.828;2023-02-04T02:23:58;8.10;;;0.83;;
72406;SDS011;60396;47.550;18.828;2023-02-04T02:26:27;5.20;;;0.70;;
72406;SDS011;60396;47.550;18.828;2023-02-04T02:28:54;6.20;;;0.77;;
72406;SDS011;60396;47.550;18.828;2023-02-04T02:31:22;7.45;;;0.80;;
72406;SDS011;60396;47.550;18.828;2023-02-04T02:33:50;5.57;;;0.57;;
72406;SDS011;60396;47.550;18.828;2023-02-04T02:36:18;5.20;;;0.60;;
72406;SDS011;60396;47.550;18.828;2023-02-04T02:38:46;6.20;;;0.70;;
72406;SDS011;60396;47.550;18.828;2023-02-04T02:41:14;9.85;;;0.95;;
72406;SDS011;60396;47.550;18.828;2023-02-04T02:43:42;8.25;;;0.90;;
72406;SDS011;60396;47.550;18.828;2023-02-04T02:46:10;8.82;;;1.30;;
72406;SDS011;60396;47.550;18.828;2023-02-04T02:48:38;7.50;;;0.97;;
72406;SDS011;60396;47.550;18.828;2023-02-04T02:51:05;7.80;;;1.50;;
72406;SDS011;60396;47.550;18.828;2023-02-04T02:53:33;7.75;;;1.00;;
72406;SDS011;60396;47.550;18.828;2023-02-04T02:56:02;6.90;;;0.82;;
72406;SDS011;60396;47.550;18.828;2023-02-04T02:58:32;8.32;;;0.95;;
72406;SDS011;60396;47.550;18.828;2023-02-04T03:01:02;5.03;;;0.60;;
72406;SDS011;60396;47.550;18.828;2023-02-04T03:03:33;6.78;;;0.75;;
72406;SDS011;60396;47.550;18.828;2023-02-04T03:06:16;7.12;;;1.23;;
72406;SDS011;60396;47.550;18.828;2023-02-04T03:08:49;9.68;;;1.10;;
72406;SDS011;60396;47.550;18.828;2023-02-04T03:11:19;6.60;;;0.73;;
72406;SDS011;60396;47.550;18.828;2023-02-04T03:13:47;7.07;;;0.63;;
72406;SDS011;60396;47.550;18.828;2023-02-04T03:16:16;7.00;;;1.20;;
72406;SDS011;60396;47.550;18.828;2023-02-04T03:18:45;7.43;;;0.80;;
72406;SDS011;60396;47.550;18.828;2023-02-04T03:21:12;4.78;;;0.40;;
72406;SDS011;60396;47.550;18.828;2023-02-04T03:23:40;9.15;;;0.70;;
72406;SDS011;60396;47.550;18.828;2023-02-04T03:26:08;6.93;;;1.13;;
72406;SDS011;60396;47.550;18.828;2023-02-04T03:28:41;6.57;;;0.77;;
72406;SDS011;60396;47.550;18.828;2023-02-04T03:31:09;7.65;;;1.25;;
72406;SDS011;60396;47.550;18.828;2023-02-04T03:33:37;7.05;;;0.70;;
72406;SDS011;60396;47.550;18.828;2023-02-04T03:36:04;5.18;;;0.65;;
72406;SDS011;60396;47.550;18.828;2023-02-04T03:38:33;10.70;;;0.87;;
72406;SDS011;60396;47.550;18.828;2023-02-04T03:41:00;7.62;;;0.62;;
72406;SDS011;60396;47.550;18.828;2023-02-04T03:43:28;10.85;;;1.17;;
72406;SDS011;60396;47.550;18.828;2023-02-04T03:45:57;5.82;;;1.08;;
72406;SDS011;60396;47.550;18.828;2023-02-04T03:48:24;4.65;;;0.60;;
72406;SDS011;60396;47.550;18.828;2023-02-04T03:50:52;7.77;;;1.00;;
72406;SDS011;60396;47.550;18.828;2023-02-04T03:53:20;6.10;;;0.70;;
72406;SDS011;60396;47.550;18.828;2023-02-04T03:55:48;6.82;;;0.60;;
72406;SDS011;60396;47.550;18.828;2023-02-04T03:58:15;10.25;;;0.93;;
72406;SDS011;60396;47.550;18.828;2023-02-04T04:00:43;4.80;;;0.57;;
72406;SDS011;60396;47.550;18.828;2023-02-04T04:03:11;7.63;;;0.77;;
72406;SDS011;60396;47.550;18.828;2023-02-04T04:05:39;7.15;;;0.82;;
72406;SDS011;60396;47.550;18.828;2023-02-04T04:08:06;6.18;;;0.60;;
72406;SDS011;60396;47.550;18.828;2023-02-04T04:10:34;6.37;;;0.60;;
72406;SDS011;60396;47.550;18.828;2023-02-04T04:13:02;5.62;;;0.90;;
72406;SDS011;60396;47.550;18.828;2023-02-04T04:15:29;5.20;;;0.50;;
72406;SDS011;60396;47.550;18.828;2023-02-04T04:17:57;6.95;;;0.70;;
72406;SDS011;60396;47.550;18.828;2023-02-04T04:20:25;5.25;;;0.65;;
72406;SDS011;60396;47.550;18.828;2023-02-04T04:22:55;6.35;;;0.43;;
72406;SDS011;60396;47.550;18.828;2023-02-04T04:25:23;7.47;;;0.77;;
72406;SDS011;60396;47.550;18.828;2023-02-04T04:27:51;6.37;;;0.57;;
72406;SDS011;60396;47.550;18.828;2023-02-04T04:30:19;3.55;;;0.47;;
72406;SDS011;60396;47.550;18.828;2023-02-04T04:32:47;9.27;;;0.70;;
72406;SDS011;60396;47.550;18.828;2023-02-04T04:35:14;6.03;;;0.55;;
72406;SDS011;60396;47.550;18.828;2023-02-04T04:37:42;6.32;;;0.80;;
72406;SDS011;60396;47.550;18.828;2023-02-04T04:40:10;7.73;;;1.10;;
72406;SDS011;60396;47.550;18.828;2023-02-04T04:42:38;8.27;;;0.68;;
72406;SDS011;60396;47.550;18.828;2023-02-04T04:45:07;5.72;;;0.50;;
72406;SDS011;60396;47.550;18.828;2023-02-04T04:47:35;8.52;;;0.75;;
72406;SDS011;60396;47.550;18.828;2023-02-04T04:50:03;3.62;;;0.47;;
72406;SDS011;60396;47.550;18.828;2023-02-04T04:52:31;4.60;;;0.50;;
72406;SDS011;60396;47.550;18.828;2023-02-04T04:54:58;9.05;;;0.50;;
72406;SDS011;60396;47.550;18.828;2023-02-04T04:57:26;5.80;;;0.68;;
72406;SDS011;60396;47.550;18.828;2023-02-04T04:59:54;4.43;;;0.62;;
72406;SDS011;60396;47.550;18.828;2023-02-04T05:02:22;4.18;;;0.55;;
72406;SDS011;60396;47.550;18.828;2023-02-04T05:04:50;6.37;;;0.73;;
72406;SDS011;60396;47.550;18.828;2023-02-04T05:07:17;5.22;;;0.80;;
72406;SDS011;60396;47.550;18.828;2023-02-04T05:09:45;5.70;;;0.50;;
72406;SDS011;60396;47.550;18.828;2023-02-04T05:12:13;6.90;;;0.40;;
72406;SDS011;60396;47.550;18.828;2023-02-04T05:14:40;3.28;;;0.60;;
72406;SDS011;60396;47.550;18.828;2023-02-04T05:17:08;5.00;;;0.67;;
72406;SDS011;60396;47.550;18.828;2023-02-04T05:19:36;3.42;;;0.70;;
72406;SDS011;60396;47.550;18.828;2023-02-04T05:22:03;3.60;;;0.47;;
72406;SDS011;60396;47.550;18.828;2023-02-04T05:24:31;5.87;;;0.50;;
72406;SDS011;60396;47.550;18.828;2023-02-04T05:27:01;3.72;;;0.55;;
72406;SDS011;60396;47.550;18.828;2023-02-04T05:29:29;3.27;;;0.30;;
72406;SDS011;60396;47.550;18.828;2023-02-04T05:31:57;4.07;;;0.30;;
72406;SDS011;60396;47.550;18.828;2023-02-04T05:34:25;2.90;;;0.30;;
72406;SDS011;60396;47.550;18.828;2023-02-04T05:36:52;3.90;;;0.37;;
72406;SDS011;60396;47.550;18.828;2023-02-04T05:39:21;6.80;;;0.57;;
72406;SDS011;60396;47.550;18.828;2023-02-04T05:41:48;3.13;;;0.40;;
72406;SDS011;60396;47.550;18.828;2023-02-04T05:44:16;5.80;;;1.15;;
72406;SDS011;60396;47.550;18.828;2023-02-04T05:46:44;2.00;;;0.30;;
72406;SDS011;60396;47.550;18.828;2023-02-04T05:49:11;2.72;;;0.40;;
72406;SDS011;60396;47.550;18.828;2023-02-04T05:51:39;3.10;;;0.40;;
72406;SDS011;60396;47.550;18.828;2023-02-04T05:54:07;1.87;;;0.27;;
72406;SDS011;60396;47.550;18.828;2023-02-04T05:56:34;2.90;;;0.50;;
72406;SDS011;60396;47.550;18.828;2023-02-04T05:59:02;2.80;;;0.40;;
72406;SDS011;60396;47.550;18.828;2023-02-04T06:01:30;3.35;;;0.40;;
72406;SDS011;60396;47.550;18.828;2023-02-04T06:03:58;2.97;;;0.30;;
72406;SDS011;60396;47.550;18.828;2023-02-04T06:06:25;1.27;;;0.30;;
72406;SDS011;60396;47.550;18.828;2023-02-04T06:08:53;2.03;;;0.40;;
72406;SDS011;60396;47.550;18.828;2023-02-04T06:11:21;1.33;;;0.40;;
72406;SDS011;60396;47.550;18.828;2023-02-04T06:13:48;1.70;;;0.30;;
72406;SDS011;60396;47.550;18.828;2023-02-04T06:16:16;3.47;;;0.43;;
72406;SDS011;60396;47.550;18.828;2023-02-04T06:18:44;2.20;;;0.30;;
72406;SDS011;60396;47.550;18.828;2023-02-04T06:21:12;2.75;;;0.32;;
72406;SDS011;60396;47.550;18.828;2023-02-04T06:23:39;5.37;;;0.50;;
72406;SDS011;60396;47.550;18.828;2023-02-04T06:26:07;2.95;;;0.30;;
72406;SDS011;60396;47.550;18.828;2023-02-04T06:28:35;2.30;;;0.40;;
72406;SDS011;60396;47.550;18.828;2023-02-04T06:31:03;2.20;;;0.23;;
72406;SDS011;60396;47.550;18.828;2023-02-04T06:33:31;1.55;;;0.30;;
72406;SDS011;60396;47.550;18.828;2023-02-04T06:35:58;1.92;;;0.40;;
72406;SDS011;60396;47.550;18.828;2023-02-04T06:38:26;1.27;;;0.30;;
72406;SDS011;60396;47.550;18.828;2023-02-04T06:40:54;1.40;;;0.30;;
72406;SDS011;60396;47.550;18.828;2023-02-04T06:43:21;1.43;;;0.30;;
72406;SDS011;60396;47.550;18.828;2023-02-04T06:45:51;1.45;;;0.25;;
72406;SDS011;60396;47.550;18.828;2023-02-04T06:48:20;2.55;;;0.40;;
72406;SDS011;60396;47.550;18.828;2023-02-04T06:50:47;3.53;;;0.52;;
72406;SDS011;60396;47.550;18.828;2023-02-04T06:53:15;5.18;;;0.40;;
72406;SDS011;60396;47.550;18.828;2023-02-04T06:55:43;1.57;;;0.30;;
72406;SDS011;60396;47.550;18.828;2023-02-04T06:58:12;2.37;;;0.50;;
72406;SDS011;60396;47.550;18.828;2023-02-04T07:00:39;2.97;;;0.60;;
72406;SDS011;60396;47.550;18.828;2023-02-04T07:03:07;5.47;;;0.70;;
72406;SDS011;60396;47.550;18.828;2023-02-04T07:05:35;2.08;;;0.50;;
72406;SDS011;60396;47.550;18.828;2023-02-04T07:08:03;2.93;;;0.63;;
72406;SDS011;60396;47.550;18.828;2023-02-04T07:10:31;3.70;;;0.75;;
72406;SDS011;60396;47.550;18.828;2023-02-04T07:13:00;3.37;;;0.93;;
72406;SDS011;60396;47.550;18.828;2023-02-04T07:15:27;3.65;;;0.80;;
72406;SDS011;60396;47.550;18.828;2023-02-04T07:17:55;3.83;;;0.85;;
72406;SDS011;60396;47.550;18.828;2023-02-04T07:20:23;5.13;;;1.00;;
72406;SDS011;60396;47.550;18.828;2023-02-04T07:22:50;4.70;;;1.40;;
72406;SDS011;60396;47.550;18.828;2023-02-04T07:25:18;4.87;;;1.45;;
72406;SDS011;60396;47.550;18.828;2023-02-04T07:27:46;5.90;;;1.60;;
72406;SDS011;60396;47.550;18.828;2023-02-04T07:30:15;4.97;;;1.35;;
72406;SDS011;60396;47.550;18.828;2023-02-04T07:32:43;4.70;;;1.50;;
72406;SDS011;60396;47.550;18.828;2023-02-04T07:35:10;4.72;;;1.62;;
72406;SDS011;60396;47.550;18.828;2023-02-04T07:37:38;5.25;;;1.48;;
72406;SDS011;60396;47.550;18.828;2023-02-04T07:40:09;4.60;;;1.37;;
72406;SDS011;60396;47.550;18.828;2023-02-04T07:42:38;10.05;;;2.25;;
72406;SDS011;60396;47.550;18.828;2023-02-04T07:45:06;5.43;;;1.37;;
72406;SDS011;60396;47.550;18.828;2023-02-04T07:47:34;10.63;;;2.17;;
72406;SDS011;60396;47.550;18.828;2023-02-04T07:50:02;7.28;;;2.12;;
72406;SDS011;60396;47.550;18.828;2023-02-04T07:52:30;7.15;;;2.58;;
72406;SDS011;60396;47.550;18.828;2023-02-04T07:54:58;7.40;;;2.37;;
72406;SDS011;60396;47.550;18.828;2023-02-04T07:57:25;8.13;;;2.63;;
72406;SDS011;60396;47.550;18.828;2023-02-04T07:59:54;6.70;;;2.33;;
72406;SDS011;60396;47.550;18.828;2023-02-04T08:02:22;8.48;;;2.30;;
72406;SDS011;60396;47.550;18.828;2023-02-04T08:04:50;6.32;;;2.08;;
72406;SDS011;60396;47.550;18.828;2023-02-04T08:07:18;7.30;;;2.25;;
72406;SDS011;60396;47.550;18.828;2023-02-04T08:09:45;7.50;;;2.73;;
72406;SDS011;60396;47.550;18.828;2023-02-04T08:12:13;7.47;;;2.40;;
72406;SDS011;60396;47.550;18.828;2023-02-04T08:14:41;7.45;;;2.50;;
72406;SDS011;60396;47.550;18.828;2023-02-04T08:17:08;9.32;;;2.65;;
72406;SDS011;60396;47.550;18.828;2023-02-04T08:19:36;8.20;;;2.92;;
72406;SDS011;60396;47.550;18.828;2023-02-04T08:22:04;7.17;;;2.20;;
72406;SDS011;60396;47.550;18.828;2023-02-04T08:24:32;6.28;;;2.22;;
72406;SDS011;60396;47.550;18.828;2023-02-04T08:27:00;5.95;;;1.92;;
72406;SDS011;60396;47.550;18.828;2023-02-04T08:29:27;7.57;;;2.60;;
72406;SDS011;60396;47.550;18.828;2023-02-04T08:31:55;5.55;;;2.00;;
72406;SDS011;60396;47.550;18.828;2023-02-04T08:34:23;5.43;;;1.67;;
72406;SDS011;60396;47.550;18.828;2023-02-04T08:36:51;7.53;;;1.90;;
72406;SDS011;60396;47.550;18.828;2023-02-04T08:39:18;5.97;;;1.40;;
72406;SDS011;60396;47.550;18.828;2023-02-04T08:41:46;8.40;;;2.20;;
72406;SDS011;60396;47.550;18.828;2023-02-04T08:44:15;6.00;;;2.00;;
72406;SDS011;60396;47.550;18.828;2023-02-04T08:46:43;6.30;;;1.83;;
72406;SDS011;60396;47.550;18.828;2023-02-04T08:49:11;5.60;;;1.48;;
72406;SDS011;60396;47.550;18.828;2023-02-04T08:51:39;6.03;;;2.20;;
72406;SDS011;60396;47.550;18.828;2023-02-04T08:54:06;5.70;;;1.35;;
72406;SDS011;60396;47.550;18.828;2023-02-04T08:56:34;4.75;;;1.30;;
72406;SDS011;60396;47.550;18.828;2023-02-04T08:59:04;5.10;;;1.57;;
72406;SDS011;60396;47.550;18.828;2023-02-04T09:01:31;4.12;;;1.12;;
72406;SDS011;60396;47.550;18.828;2023-02-04T09:04:00;5.28;;;1.42;;
72406;SDS011;60396;47.550;18.828;2023-02-04T09:06:27;4.32;;;1.17;;
72406;SDS011;60396;47.550;18.828;2023-02-04T09:08:55;3.60;;;1.12;;
72406;SDS011;60396;47.550;18.828;2023-02-04T09:11:23;5.80;;;1.30;;
72406;SDS011;60396;47.550;18.828;2023-02-04T09:13:50;3.72;;;1.10;;
72406;SDS011;60396;47.550;18.828;2023-02-04T09:16:18;4.20;;;0.95;;
72406;SDS011;60396;47.550;18.828;2023-02-04T09:18:46;5.10;;;0.88;;
72406;SDS011;60396;47.550;18.828;2023-02-04T09:21:13;4.28;;;1.08;;
72406;SDS011;60396;47.550;18.828;2023-02-04T09:23:41;4.13;;;0.90;;
72406;SDS011;60396;47.550;18.828;2023-02-04T09:26:09;4.45;;;1.02;;
72406;SDS011;60396;47.550;18.828;2023-02-04T09:28:36;3.47;;;1.10;;
72406;SDS011;60396;47.550;18.828;2023-02-04T09:31:04;5.62;;;1.30;;
72406;SDS011;60396;47.550;18.828;2023-02-04T09:33:33;3.33;;;0.73;;
72406;SDS011;60396;47.550;18.828;2023-02-04T09:36:01;4.63;;;1.10;;
72406;SDS011;60396;47.550;18.828;2023-02-04T09:38:29;3.72;;;1.12;;
72406;SDS011;60396;47.550;18.828;2023-02-04T09:41:01;4.07;;;1.12;;
72406;SDS011;60396;47.550;18.828;2023-02-04T09:43:33;3.83;;;0.60;;
72406;SDS011;60396;47.550;18.828;2023-02-04T09:46:03;3.00;;;0.68;;
72406;SDS011;60396;47.550;18.828;2023-02-04T09:48:30;4.20;;;0.90;;
72406;SDS011;60396;47.550;18.828;2023-02-04T09:51:03;3.22;;;0.65;;
72406;SDS011;60396;47.550;18.828;2023-02-04T09:53:32;2.87;;;0.60;;
72406;SDS011;60396;47.550;18.828;2023-02-04T09:56:01;4.65;;;0.80;;
72406;SDS011;60396;47.550;18.828;2023-02-04T09:58:30;4.37;;;0.65;;
72406;SDS011;60396;47.550;18.828;2023-02-04T10:01:04;3.40;;;0.70;;
72406;SDS011;60396;47.550;18.828;2023-02-04T10:03:38;3.33;;;0.60;;
72406;SDS011;60396;47.550;18.828;2023-02-04T10:06:17;3.05;;;0.73;;
72406;SDS011;60396;47.550;18.828;2023-02-04T10:08:46;3.00;;;0.68;;
72406;SDS011;60396;47.550;18.828;2023-02-04T10:11:16;4.00;;;0.73;;
72406;SDS011;60396;47.550;18.828;2023-02-04T10:13:46;3.87;;;0.77;;
72406;SDS011;60396;47.550;18.828;2023-02-04T10:16:22;3.67;;;0.60;;
72406;SDS011;60396;47.550;18.828;2023-02-04T10:18:57;3.85;;;1.10;;
72406;SDS011;60396;47.550;18.828;2023-02-04T10:21:27;3.40;;;0.80;;
72406;SDS011;60396;47.550;18.828;2023-02-04T10:23:56;4.05;;;0.88;;
72406;SDS011;60396;47.550;18.828;2023-02-04T10:26:27;3.03;;;0.67;;
72406;SDS011;60396;47.550;18.828;2023-02-04T10:29:00;4.57;;;0.80;;
72406;SDS011;60396;47.550;18.828;2023-02-04T10:34:20;5.05;;;0.95;;
72406;SDS011;60396;47.550;18.828;2023-02-04T10:36:50;4.10;;;0.90;;
72406;SDS011;60396;47.550;18.828;2023-02-04T10:39:27;4.27;;;0.80;;
72406;SDS011;60396;47.550;18.828;2023-02-04T10:41:57;3.05;;;0.50;;
72406;SDS011;60396;47.550;18.828;2023-02-04T10:44:33;4.15;;;0.95;;
72406;SDS011;60396;47.550;18.828;2023-02-04T10:47:12;4.05;;;1.02;;
72406;SDS011;60396;47.550;18.828;2023-02-04T10:52:21;4.73;;;1.03;;
72406;SDS011;60396;47.550;18.828;2023-02-04T10:54:53;3.55;;;0.88;;
72406;SDS011;60396;47.550;18.828;2023-02-04T10:57:22;5.18;;;1.10;;
72406;SDS011;60396;47.550;18.828;2023-02-04T10:59:57;4.40;;;0.90;;
72406;SDS011;60396;47.550;18.828;2023-02-04T11:05:22;3.93;;;0.80;;
72406;SDS011;60396;47.550;18.828;2023-02-04T11:07:52;3.75;;;0.85;;
72406;SDS011;60396;47.550;18.828;2023-02-04T11:10:24;3.83;;;0.70;;
72406;SDS011;60396;47.550;18.828;2023-02-04T11:18:10;2.23;;;0.60;;
72406;SDS011;60396;47.550;18.828;2023-02-04T11:20:58;4.15;;;0.70;;
72406;SDS011;60396;47.550;18.828;2023-02-04T11:26:10;4.18;;;0.65;;
72406;SDS011;60396;47.550;18.828;2023-02-04T11:29:06;3.85;;;0.70;;
72406;SDS011;60396;47.550;18.828;2023-02-04T11:31:43;3.17;;;0.70;;
72406;SDS011;60396;47.550;18.828;2023-02-04T11:36:55;3.33;;;0.65;;
72406;SDS011;60396;47.550;18.828;2023-02-04T11:39:31;3.30;;;0.90;;
72406;SDS011;60396;47.550;18.828;2023-02-04T11:42:00;4.72;;;1.02;;
72406;SDS011;60396;47.550;18.828;2023-02-04T11:44:28;3.50;;;0.70;;
72406;SDS011;60396;47.550;18.828;2023-02-04T11:46:56;3.85;;;0.80;;
72406;SDS011;60396;47.550;18.828;2023-02-04T11:49:25;3.42;;;0.82;;
72406;SDS011;60396;47.550;18.828;2023-02-04T11:52:06;6.15;;;1.25;;
72406;SDS011;60396;47.550;18.828;2023-02-04T11:54:38;3.95;;;0.93;;
72406;SDS011;60396;47.550;18.828;2023-02-04T11:57:05;3.00;;;0.80;;
72406;SDS011;60396;47.550;18.828;2023-02-04T11:59:33;3.28;;;0.90;;
72406;SDS011;60396;47.550;18.828;2023-02-04T12:02:15;4.18;;;1.00;;
72406;SDS011;60396;47.550;18.828;2023-02-04T12:04:51;4.22;;;1.00;;
72406;SDS011;60396;47.550;18.828;2023-02-04T12:07:23;4.32;;;1.15;;
72406;SDS011;60396;47.550;18.828;2023-02-04T12:09:53;5.67;;;1.30;;
72406;SDS011;60396;47.550;18.828;2023-02-04T12:12:26;4.95;;;1.05;;
72406;SDS011;60396;47.550;18.828;2023-02-04T12:14:59;5.50;;;1.20;;
72406;SDS011;60396;47.550;18.828;2023-02-04T12:17:29;6.72;;;1.50;;
72406;SDS011;60396;47.550;18.828;2023-02-04T12:19:59;4.15;;;1.00;;
72406;SDS011;60396;47.550;18.828;2023-02-04T12:22:27;4.33;;;1.20;;
72406;SDS011;60396;47.550;18.828;2023-02-04T12:24:54;4.18;;;1.37;;
72406;SDS011;60396;47.550;18.828;2023-02-04T12:27:22;5.25;;;1.30;;
72406;SDS011;60396;47.550;18.828;2023-02-04T12:29:55;4.57;;;1.20;;
72406;SDS011;60396;47.550;18.828;2023-02-04T12:32:23;4.35;;;1.20;;
72406;SDS011;60396;47.550;18.828;2023-02-04T12:34:51;4.30;;;1.20;;
72406;SDS011;60396;47.550;18.828;2023-02-04T12:37:19;3.42;;;0.90;;
72406;SDS011;60396;47.550;18.828;2023-02-04T12:39:47;5.62;;;1.48;;
72406;SDS011;60396;47.550;18.828;2023-02-04T12:42:14;3.95;;;1.10;;
72406;SDS011;60396;47.550;18.828;2023-02-04T12:44:43;4.93;;;1.25;;
72406;SDS011;60396;47.550;18.828;2023-02-04T12:47:11;5.17;;;1.00;;
72406;SDS011;60396;47.550;18.828;2023-02-04T12:49:39;4.43;;;1.02;;
72406;SDS011;60396;47.550;18.828;2023-02-04T12:52:07;5.65;;;1.35;;
72406;SDS011;60396;47.550;18.828;2023-02-04T12:54:35;3.83;;;1.00;;
72406;SDS011;60396;47.550;18.828;2023-02-04T12:57:02;5.80;;;1.60;;
72406;SDS011;60396;47.550;18.828;2023-02-04T12:59:30;4.73;;;1.50;;
72406;SDS011;60396;47.550;18.828;2023-02-04T13:01:58;4.47;;;1.42;;
72406;SDS011;60396;47.550;18.828;2023-02-04T13:04:26;4.78;;;1.00;;
72406;SDS011;60396;47.550;18.828;2023-02-04T13:06:53;5.35;;;1.55;;
72406;SDS011;60396;47.550;18.828;2023-02-04T13:09:21;4.95;;;1.85;;
72406;SDS011;60396;47.550;18.828;2023-02-04T13:11:49;5.03;;;1.43;;
72406;SDS011;60396;47.550;18.828;2023-02-04T13:14:17;10.25;;;1.33;;
72406;SDS011;60396;47.550;18.828;2023-02-04T13:16:44;7.47;;;1.08;;
72406;SDS011;60396;47.550;18.828;2023-02-04T13:19:12;7.03;;;1.20;;
72406;SDS011;60396;47.550;18.828;2023-02-04T13:21:40;4.37;;;1.10;;
72406;SDS011;60396;47.550;18.828;2023-02-04T13:24:08;4.30;;;1.23;;
72406;SDS011;60396;47.550;18.828;2023-02-04T13:26:35;9.13;;;1.27;;
72406;SDS011;60396;47.550;18.828;2023-02-04T13:29:03;4.10;;;1.20;;
72406;SDS011;60396;47.550;18.828;2023-02-04T13:31:31;3.70;;;0.93;;
72406;SDS011;60396;47.550;18.828;2023-02-04T13:33:59;4.60;;;1.15;;
72406;SDS011;60396;47.550;18.828;2023-02-04T13:36:26;4.80;;;1.10;;
72406;SDS011;60396;47.550;18.828;2023-02-04T13:38:56;3.67;;;0.85;;
72406;SDS011;60396;47.550;18.828;2023-02-04T13:41:26;4.65;;;1.20;;
72406;SDS011;60396;47.550;18.828;2023-02-04T13:43:54;5.72;;;2.15;;
72406;SDS011;60396;47.550;18.828;2023-02-04T13:46:23;3.90;;;0.90;;
72406;SDS011;60396;47.550;18.828;2023-02-04T13:48:51;2.87;;;0.70;;
72406;SDS011;60396;47.550;18.828;2023-02-04T13:51:19;3.83;;;0.90;;
72406;SDS011;60396;47.550;18.828;2023-02-04T13:53:47;4.03;;;1.02;;
72406;SDS011;60396;47.550;18.828;2023-02-04T13:56:14;3.78;;;1.00;;
72406;SDS011;60396;47.550;18.828;2023-02-04T13:58:42;4.75;;;1.00;;
72406;SDS011;60396;47.550;18.828;2023-02-04T14:01:11;7.17;;;1.30;;
72406;SDS011;60396;47.550;18.828;2023-02-04T14:03:40;4.80;;;1.30;;
72406;SDS011;60396;47.550;18.828;2023-02-04T14:06:09;5.72;;;1.77;;
72406;SDS011;60396;47.550;18.828;2023-02-04T14:08:36;5.18;;;1.60;;
72406;SDS011;60396;47.550;18.828;2023-02-04T14:11:04;5.65;;;1.37;;
72406;SDS011;60396;47.550;18.828;2023-02-04T14:13:33;5.77;;;1.47;;
72406;SDS011;60396;47.550;18.828;2023-02-04T14:16:01;7.10;;;1.83;;
72406;SDS011;60396;47.550;18.828;2023-02-04T14:18:29;6.30;;;1.55;;
72406;SDS011;60396;47.550;18.828;2023-02-04T14:20:56;6.37;;;1.33;;
72406;SDS011;60396;47.550;18.828;2023-02-04T14:23:24;4.25;;;0.98;;
72406;SDS011;60396;47.550;18.828;2023-02-04T14:25:52;6.20;;;1.30;;
72406;SDS011;60396;47.550;18.828;2023-02-04T14:28:20;5.37;;;1.12;;
72406;SDS011;60396;47.550;18.828;2023-02-04T14:30:48;5.28;;;1.35;;
72406;SDS011;60396;47.550;18.828;2023-02-04T14:33:16;4.90;;;1.20;;
72406;SDS011;60396;47.550;18.828;2023-02-04T14:35:44;7.93;;;2.55;;
72406;SDS011;60396;47.550;18.828;2023-02-04T14:38:12;5.50;;;1.53;;
72406;SDS011;60396;47.550;18.828;2023-02-04T14:40:42;7.87;;;1.50;;
72406;SDS011;60396;47.550;18.828;2023-02-04T14:43:12;5.12;;;1.42;;
72406;SDS011;60396;47.550;18.828;2023-02-04T14:45:39;7.35;;;1.92;;
72406;SDS011;60396;47.550;18.828;2023-02-04T14:48:08;6.03;;;1.98;;
72406;SDS011;60396;47.550;18.828;2023-02-04T14:50:35;7.50;;;1.97;;
72406;SDS011;60396;47.550;18.828;2023-02-04T14:53:03;5.80;;;1.60;;
72406;SDS011;60396;47.550;18.828;2023-02-04T14:55:31;8.07;;;1.80;;
72406;SDS011;60396;47.550;18.828;2023-02-04T14:57:58;5.22;;;1.45;;
72406;SDS011;60396;47.550;18.828;2023-02-04T15:00:26;6.07;;;1.85;;